createdAt,value
2022-11-12T00:02:39.131Z,13.40
2022-11-12T00:05:26.419Z,13.30
2022-11-12T00:08:12.242Z,13.30
2022-11-12T00:10:58.331Z,13.30
2022-11-12T00:13:45.277Z,13.20
2022-11-12T00:16:31.469Z,13.30
2022-11-12T00:19:17.785Z,13.30
2022-11-12T00:22:16.917Z,13.20
2022-11-12T00:25:04.320Z,13.20
2022-11-12T00:27:51.753Z,13.10
2022-11-12T00:30:41.676Z,13.10
2022-11-12T00:33:28.399Z,13.00
2022-11-12T00:36:14.121Z,13.00
2022-11-12T00:39:00.737Z,13.00
2022-11-12T00:41:46.577Z,13.00
2022-11-12T00:44:33.300Z,13.00
2022-11-12T00:47:20.394Z,12.90
2022-11-12T00:50:08.409Z,12.90
2022-11-12T00:52:54.140Z,12.90
2022-11-12T00:55:40.070Z,12.90
2022-11-12T00:58:26.017Z,12.90
2022-11-12T01:01:14.542Z,12.90
2022-11-12T01:04:00.909Z,12.90
2022-11-12T01:06:47.060Z,12.80
2022-11-12T01:09:33.169Z,12.90
2022-11-12T01:12:54.999Z,12.80
2022-11-12T01:15:42.663Z,12.80
2022-11-12T01:18:29.382Z,12.80
2022-11-12T01:21:15.635Z,12.70
2022-11-12T01:24:02.123Z,12.60
2022-11-12T01:27:08.300Z,12.60
2022-11-12T01:29:54.478Z,12.60
2022-11-12T01:32:41.448Z,12.60
2022-11-12T01:35:27.214Z,12.50
2022-11-12T01:38:13.401Z,12.50
2022-11-12T01:40:59.816Z,12.50
2022-11-12T01:43:45.947Z,12.50
2022-11-12T01:46:32.654Z,12.50
2022-11-12T01:49:28.783Z,12.50
2022-11-12T01:52:21.666Z,12.50
2022-11-12T01:55:14.663Z,12.40
2022-11-12T01:58:13.893Z,12.40
2022-11-12T02:01:02.366Z,12.50
2022-11-12T02:03:51.247Z,12.40
2022-11-12T02:06:37.968Z,12.40
2022-11-12T02:09:25.560Z,12.40
2022-11-12T02:12:13.318Z,12.40
2022-11-12T02:15:00.008Z,12.40
2022-11-12T02:17:46.550Z,12.30
2022-11-12T02:20:37.435Z,12.30
2022-11-12T02:23:23.780Z,12.30
2022-11-12T02:26:09.641Z,12.20
2022-11-12T02:28:56.344Z,12.20
2022-11-12T02:31:42.385Z,12.20
2022-11-12T02:34:28.786Z,12.20
2022-11-12T02:37:15.242Z,12.20
2022-11-12T02:40:01.480Z,12.20
2022-11-12T02:42:47.377Z,12.20
2022-11-12T02:45:33.760Z,12.20
2022-11-12T02:48:19.895Z,12.10
2022-11-12T02:51:06.634Z,12.20
2022-11-12T02:53:52.617Z,12.20
2022-11-12T02:56:39.020Z,12.20
2022-11-12T02:59:25.372Z,12.20
2022-11-12T03:02:11.264Z,12.20
2022-11-12T03:04:58.019Z,12.10
2022-11-12T03:07:44.315Z,12.10
2022-11-12T03:10:31.798Z,12.10
2022-11-12T03:13:17.841Z,12.10
2022-11-12T03:16:04.761Z,12.10
2022-11-12T03:18:51.456Z,12.10
2022-11-12T03:21:37.242Z,12.10
2022-11-12T03:24:24.392Z,12.10
2022-11-12T03:27:10.711Z,12.00
2022-11-12T03:29:56.956Z,12.10
2022-11-12T03:32:43.713Z,12.10
2022-11-12T03:35:30.198Z,12.10
2022-11-12T03:38:16.367Z,11.90
2022-11-12T03:41:02.876Z,11.90
2022-11-12T03:43:50.202Z,11.90
2022-11-12T03:46:40.129Z,11.80
2022-11-12T03:49:24.326Z,11.80
2022-11-12T03:52:11.180Z,11.80
2022-11-12T03:54:57.947Z,11.80
2022-11-12T03:57:45.732Z,11.80
2022-11-12T04:00:32.104Z,11.80
2022-11-12T04:03:18.198Z,11.80
2022-11-12T04:06:23.110Z,11.80
2022-11-12T04:09:09.318Z,11.80
2022-11-12T04:11:55.360Z,11.70
2022-11-12T04:14:41.676Z,11.80
2022-11-12T04:17:45.721Z,11.80
2022-11-12T04:20:48.208Z,11.80
2022-11-12T04:23:34.407Z,11.80
2022-11-12T04:26:23.733Z,11.80
2022-11-12T04:29:27.893Z,11.70
2022-11-12T04:32:14.955Z,11.70
2022-11-12T04:35:02.669Z,11.80
2022-11-12T04:37:49.032Z,11.80
2022-11-12T04:40:53.880Z,11.80
2022-11-12T04:43:58.743Z,11.80
2022-11-12T04:46:45.394Z,11.80
2022-11-12T04:49:31.451Z,11.80
2022-11-12T04:52:17.744Z,11.80
2022-11-12T04:55:05.121Z,11.70
2022-11-12T04:57:53.672Z,11.80
2022-11-12T05:00:39.356Z,11.70
2022-11-12T05:03:26.102Z,11.70
2022-11-12T05:06:31.906Z,11.70
2022-11-12T05:09:18.572Z,11.70
2022-11-12T05:12:05.016Z,11.70
2022-11-12T05:14:51.493Z,11.70
2022-11-12T05:17:43.999Z,11.60
2022-11-12T05:20:30.073Z,11.60
2022-11-12T05:23:16.685Z,11.70
2022-11-12T05:26:02.834Z,11.60
2022-11-12T05:28:49.186Z,11.60
2022-11-12T05:31:35.663Z,11.60
2022-11-12T05:34:23.190Z,11.60
2022-11-12T05:37:10.689Z,11.60
2022-11-12T05:39:57.194Z,11.60
2022-11-12T05:42:43.421Z,11.50
2022-11-12T05:45:29.744Z,11.50
2022-11-12T05:48:20.163Z,11.40
2022-11-12T05:51:13.075Z,11.40
2022-11-12T05:53:52.419Z,11.40
2022-11-12T05:56:38.994Z,11.40
2022-11-12T05:59:25.059Z,11.50
2022-11-12T06:02:13.139Z,11.50
2022-11-12T06:04:59.855Z,11.50
2022-11-12T06:07:45.860Z,11.50
2022-11-12T06:10:33.807Z,11.50
2022-11-12T06:13:20.913Z,11.50
2022-11-12T06:16:08.823Z,11.60
2022-11-12T06:18:55.050Z,11.50
2022-11-12T06:21:41.708Z,11.60
2022-11-12T06:24:34.723Z,11.60
2022-11-12T06:27:17.041Z,11.60
2022-11-12T06:30:05.427Z,11.50
2022-11-12T06:32:52.642Z,11.60
2022-11-12T06:35:42.735Z,11.60
2022-11-12T06:38:27.728Z,11.60
2022-11-12T06:41:15.268Z,11.70
2022-11-12T06:44:01.425Z,11.70
2022-11-12T06:46:47.969Z,11.70
2022-11-12T06:49:34.248Z,11.60
2022-11-12T06:52:20.312Z,11.60
2022-11-12T06:55:08.403Z,11.60
2022-11-12T06:57:55.186Z,11.60
2022-11-12T07:00:42.547Z,11.70
2022-11-12T07:03:29.557Z,11.70
2022-11-12T07:06:29.692Z,11.70
2022-11-12T07:09:07.656Z,11.80
2022-11-12T07:11:53.588Z,11.80
2022-11-12T07:14:39.662Z,11.80
2022-11-12T07:17:25.960Z,11.80
2022-11-12T07:20:12.587Z,11.80
2022-11-12T07:23:01.712Z,11.80
2022-11-12T07:25:47.694Z,11.80
2022-11-12T07:28:36.445Z,11.90
2022-11-12T07:31:23.508Z,11.90
2022-11-12T07:37:15.885Z,12.00
2022-11-12T07:40:01.704Z,12.00
2022-11-12T07:42:51.238Z,12.10
2022-11-12T07:45:38.915Z,12.10
2022-11-12T07:48:25.561Z,12.10
2022-11-12T07:51:20.641Z,12.00
2022-11-12T07:54:08.035Z,12.00
2022-11-12T07:56:53.812Z,12.10
2022-11-12T07:59:45.716Z,12.00
2022-11-12T08:02:28.365Z,12.10
2022-11-12T08:05:20.164Z,12.10
2022-11-12T08:08:02.710Z,12.20
2022-11-12T08:10:50.087Z,12.20
2022-11-12T08:13:36.892Z,12.20
2022-11-12T08:16:23.963Z,12.20
2022-11-12T08:19:12.163Z,12.20
2022-11-12T08:22:07.471Z,12.20
2022-11-12T08:24:53.324Z,12.20
2022-11-12T08:27:39.274Z,12.20
2022-11-12T08:30:28.078Z,12.30
2022-11-12T08:33:17.600Z,12.30
2022-11-12T08:36:12.601Z,12.40
2022-11-12T08:38:58.933Z,12.50
2022-11-12T08:41:45.710Z,12.50
2022-11-12T08:44:31.751Z,12.60
2022-11-12T08:47:19.312Z,12.60
2022-11-12T08:50:06.647Z,12.70
2022-11-12T08:52:53.187Z,12.80
2022-11-12T08:55:39.366Z,12.80
2022-11-12T08:58:26.865Z,12.80
2022-11-12T09:01:13.663Z,12.90
2022-11-12T09:04:00.082Z,12.90
2022-11-12T09:06:51.146Z,13.00
2022-11-12T09:09:35.426Z,13.00
2022-11-12T09:12:21.894Z,13.10
2022-11-12T09:18:01.932Z,13.10
2022-11-12T09:20:48.098Z,13.20
2022-11-12T09:23:35.640Z,13.30
2022-11-12T09:26:21.656Z,13.30
2022-11-12T09:29:07.364Z,13.40
2022-11-12T09:31:53.813Z,13.40
2022-11-12T09:34:40.115Z,13.40
2022-11-12T09:37:26.102Z,13.50
2022-11-12T09:40:18.397Z,13.50
2022-11-12T09:43:15.608Z,13.60
2022-11-12T09:46:26.534Z,13.60
2022-11-12T09:49:08.077Z,13.60
2022-11-12T09:52:04.035Z,13.70
2022-11-12T09:55:09.238Z,13.70
2022-11-12T09:57:55.587Z,13.80
2022-11-12T10:00:45.673Z,13.80
2022-11-12T10:03:59.056Z,13.90
2022-11-12T10:06:52.204Z,13.90
2022-11-12T10:09:42.282Z,13.90
2022-11-12T10:12:46.629Z,14.00
2022-11-12T10:15:58.682Z,14.00
2022-11-12T10:18:58.463Z,14.10
2022-11-12T10:22:00.568Z,14.20
2022-11-12T10:24:48.958Z,14.30
2022-11-12T10:27:39.950Z,14.40
2022-11-12T10:30:26.499Z,14.50
2022-11-12T10:33:15.172Z,14.50
2022-11-12T10:36:26.626Z,14.60
2022-11-12T10:39:33.556Z,14.60
2022-11-12T10:42:35.419Z,14.70
2022-11-12T10:45:23.945Z,14.80
2022-11-12T10:48:27.435Z,14.80
2022-11-12T10:51:27.363Z,14.80
2022-11-12T10:54:31.276Z,14.90
2022-11-12T10:57:23.892Z,14.90
2022-11-12T11:00:18.485Z,15.00
2022-11-12T11:03:25.032Z,15.00
2022-11-12T11:06:24.642Z,15.10
2022-11-12T11:09:17.013Z,15.10
2022-11-12T11:12:04.879Z,15.10
2022-11-12T11:15:11.276Z,15.10
2022-11-12T11:18:04.480Z,15.10
2022-11-12T11:21:02.998Z,15.20
2022-11-12T11:24:09.716Z,15.20
2022-11-12T11:26:59.525Z,15.20
2022-11-12T11:30:13.138Z,15.10
2022-11-12T11:33:29.359Z,15.20
2022-11-12T11:36:33.935Z,15.20
2022-11-12T11:39:33.088Z,15.20
2022-11-12T11:42:47.839Z,15.30
2022-11-12T11:45:52.367Z,15.30
2022-11-12T11:48:58.872Z,15.40
2022-11-12T11:52:03.561Z,15.40
2022-11-12T11:55:09.346Z,15.40
2022-11-12T11:58:24.969Z,15.50
2022-11-12T12:01:31.440Z,15.50
2022-11-12T12:04:36.801Z,15.60
2022-11-12T12:07:44.414Z,15.60
2022-11-12T12:13:49.946Z,15.60
2022-11-12T12:16:48.510Z,15.70
2022-11-12T12:19:38.475Z,15.70
2022-11-12T12:22:40.854Z,15.70
2022-11-12T12:25:31.767Z,15.70
2022-11-12T12:28:28.164Z,15.70
2022-11-12T12:31:18.088Z,15.70
2022-11-12T12:34:07.689Z,15.70
2022-11-12T12:36:57.801Z,15.70
2022-11-12T12:39:59.878Z,15.70
2022-11-12T12:42:53.202Z,15.70
2022-11-12T12:45:45.584Z,15.80
2022-11-12T12:48:35.768Z,15.80
2022-11-12T12:51:41.788Z,15.80
2022-11-12T12:54:41.509Z,15.80
2022-11-12T12:57:37.291Z,15.90
2022-11-12T13:00:41.709Z,15.90
2022-11-12T13:03:47.645Z,15.90
2022-11-12T13:06:36.241Z,15.90
2022-11-12T13:09:25.971Z,15.80
2022-11-12T13:12:13.945Z,15.80
2022-11-12T13:15:15.825Z,15.90
2022-11-12T13:18:02.160Z,16.00
2022-11-12T13:21:10.914Z,16.10
2022-11-12T13:24:09.439Z,16.30
2022-11-12T13:26:58.306Z,16.30
2022-11-12T13:29:46.185Z,16.40
2022-11-12T13:32:35.526Z,16.40
2022-11-12T13:35:38.883Z,16.40
2022-11-12T13:38:25.246Z,16.40
2022-11-12T13:41:15.393Z,16.30
2022-11-12T13:44:05.199Z,16.30
2022-11-12T13:46:52.785Z,16.20
2022-11-12T13:49:39.317Z,16.10
2022-11-12T13:52:25.500Z,16.00
2022-11-12T13:55:18.299Z,16.00
2022-11-12T13:58:04.292Z,15.70
2022-11-12T14:01:00.376Z,15.60
2022-11-12T14:03:53.465Z,15.60
2022-11-12T14:07:05.697Z,15.50
2022-11-12T14:10:07.804Z,15.50
2022-11-12T14:13:13.207Z,15.40
2022-11-12T14:16:20.444Z,15.40
2022-11-12T14:19:10.190Z,15.40
2022-11-12T14:22:12.527Z,15.40
2022-11-12T14:25:01.207Z,15.40
2022-11-12T14:27:55.560Z,15.50
2022-11-12T14:30:44.502Z,15.60
2022-11-12T14:33:33.129Z,15.70
2022-11-12T14:36:26.541Z,15.80
2022-11-12T14:39:13.246Z,15.80
2022-11-12T14:42:01.094Z,15.80
2022-11-12T14:44:47.373Z,15.80
2022-11-12T14:47:33.915Z,15.90
2022-11-12T14:50:31.109Z,15.80
2022-11-12T14:53:40.459Z,15.80
2022-11-12T14:56:42.404Z,15.70
2022-11-12T14:59:28.629Z,15.60
2022-11-12T15:02:33.495Z,15.60
2022-11-12T15:05:19.786Z,15.50
2022-11-12T15:08:09.002Z,15.40
2022-11-12T15:10:56.121Z,15.40
2022-11-12T15:13:44.556Z,15.40
2022-11-12T15:16:35.583Z,15.40
2022-11-12T15:19:27.413Z,15.40
2022-11-12T15:22:22.403Z,15.30
2022-11-12T15:25:31.347Z,15.30
2022-11-12T15:28:25.351Z,15.30
2022-11-12T15:31:31.783Z,15.20
2022-11-12T15:34:34.650Z,15.20
2022-11-12T15:37:24.633Z,15.10
2022-11-12T15:40:17.127Z,15.00
2022-11-12T15:43:04.041Z,15.00
2022-11-12T15:45:51.693Z,15.00
2022-11-12T15:48:38.496Z,14.90
2022-11-12T15:51:24.702Z,14.90
2022-11-12T15:54:11.201Z,14.80
2022-11-12T15:56:57.794Z,14.80
2022-11-12T15:59:45.942Z,14.70
2022-11-12T16:02:32.393Z,14.70
2022-11-12T16:05:19.769Z,14.70
2022-11-12T16:08:06.955Z,14.60
2022-11-12T16:10:53.291Z,14.60
2022-11-12T16:13:40.347Z,14.60
2022-11-12T16:16:26.518Z,14.60
2022-11-12T16:19:17.294Z,14.50
2022-11-12T16:22:04.213Z,14.50
2022-11-12T16:24:50.891Z,14.50
2022-11-12T16:27:39.639Z,14.40
2022-11-12T16:30:28.958Z,14.40
2022-11-12T16:33:16.555Z,14.30
2022-11-12T16:36:03.127Z,14.30
2022-11-12T16:38:49.352Z,14.30
2022-11-12T16:41:36.419Z,14.20
2022-11-12T16:44:26.195Z,14.20
2022-11-12T16:47:12.373Z,14.20
2022-11-12T16:49:58.506Z,14.20
2022-11-12T16:52:44.835Z,14.20
2022-11-12T16:55:30.956Z,14.20
2022-11-12T16:58:17.169Z,14.10
2022-11-12T17:01:03.880Z,14.20
2022-11-12T17:03:54.459Z,14.10
2022-11-12T17:06:41.681Z,14.10
2022-11-12T17:09:28.045Z,14.10
2022-11-12T17:12:14.152Z,14.10
2022-11-12T17:15:20.286Z,14.10
2022-11-12T17:18:07.992Z,14.10
2022-11-12T17:21:15.380Z,14.00
2022-11-12T17:24:01.709Z,14.00
2022-11-12T17:26:47.967Z,13.90
2022-11-12T17:29:34.115Z,14.00
2022-11-12T17:32:20.594Z,13.90
2022-11-12T17:35:08.030Z,13.80
2022-11-12T17:37:56.589Z,13.80
2022-11-12T17:40:42.881Z,13.70
2022-11-12T17:43:29.821Z,13.80
2022-11-12T17:46:16.692Z,13.70
2022-11-12T17:49:03.100Z,13.70
2022-11-12T17:51:49.388Z,13.70
2022-11-12T17:54:35.974Z,13.70
2022-11-12T17:57:22.343Z,13.70
2022-11-12T18:00:10.276Z,13.70
2022-11-12T18:02:57.127Z,13.70
2022-11-12T18:05:43.602Z,13.70
2022-11-12T18:08:30.028Z,13.70
2022-11-12T18:11:16.438Z,13.70
2022-11-12T18:14:08.850Z,13.70
2022-11-12T18:16:54.923Z,13.70
2022-11-12T18:19:41.385Z,13.70
2022-11-12T18:22:27.608Z,13.70
2022-11-12T18:25:14.204Z,13.70
2022-11-12T18:28:01.035Z,13.70
2022-11-12T18:30:47.070Z,13.70
2022-11-12T18:33:35.918Z,13.70
2022-11-12T18:36:27.081Z,13.70
2022-11-12T18:39:12.981Z,13.70
2022-11-12T18:41:59.431Z,13.60
2022-11-12T18:44:46.621Z,13.70
2022-11-12T18:47:32.889Z,13.70
2022-11-12T18:50:21.000Z,13.70
2022-11-12T18:53:11.006Z,13.60
2022-11-12T18:56:18.693Z,13.60
2022-11-12T18:59:05.711Z,13.60
2022-11-12T19:01:51.859Z,13.60
2022-11-12T19:04:45.326Z,13.60
2022-11-12T19:07:30.087Z,13.60
2022-11-12T19:10:16.836Z,13.60
2022-11-12T19:13:05.352Z,13.50
2022-11-12T19:15:51.590Z,13.50
2022-11-12T19:18:39.666Z,13.50
2022-11-12T19:21:27.006Z,13.50
2022-11-12T19:24:15.489Z,13.40
2022-11-12T19:27:01.608Z,13.40
2022-11-12T19:30:02.456Z,13.40
2022-11-12T19:32:45.328Z,13.40
2022-11-12T19:35:31.715Z,13.40
2022-11-12T19:38:18.167Z,13.30
2022-11-12T19:41:07.827Z,13.40
2022-11-12T19:43:54.390Z,13.30
2022-11-12T19:46:40.972Z,13.40
2022-11-12T19:49:27.350Z,13.30
2022-11-12T19:52:13.649Z,13.40
2022-11-12T19:55:01.164Z,13.30
2022-11-12T19:57:47.269Z,13.30
2022-11-12T20:00:33.555Z,13.30
2022-11-12T20:03:22.244Z,13.30
2022-11-12T20:06:10.721Z,13.20
2022-11-12T20:08:59.029Z,13.20
2022-11-12T20:11:45.388Z,13.30
2022-11-12T20:14:32.700Z,13.30
2022-11-12T20:17:18.729Z,13.30
2022-11-12T20:20:06.100Z,13.30
2022-11-12T20:22:52.386Z,13.30
2022-11-12T20:25:39.203Z,13.30
2022-11-12T20:28:27.000Z,13.30
2022-11-12T20:31:16.079Z,13.30
2022-11-12T20:34:02.256Z,13.30
2022-11-12T20:36:48.653Z,13.30
2022-11-12T20:39:34.745Z,13.30
2022-11-12T20:42:20.793Z,13.30
2022-11-12T20:45:08.180Z,13.30
2022-11-12T20:47:56.704Z,13.40
2022-11-12T20:51:02.415Z,13.40
2022-11-12T20:53:32.722Z,13.40
2022-11-12T20:56:23.785Z,13.30
2022-11-12T20:59:11.177Z,13.40
2022-11-12T21:01:58.043Z,13.30
2022-11-12T21:05:04.129Z,13.30
2022-11-12T21:07:50.573Z,13.40
2022-11-12T21:10:36.768Z,13.40
2022-11-12T21:13:24.027Z,13.40
2022-11-12T21:16:10.537Z,13.40
2022-11-12T21:19:02.125Z,13.40
2022-11-12T21:21:48.139Z,13.40
2022-11-12T21:24:34.596Z,13.40
2022-11-12T21:27:20.800Z,13.40
2022-11-12T21:30:08.304Z,13.40
2022-11-12T21:32:54.511Z,13.40
2022-11-12T21:35:41.889Z,13.40
2022-11-12T21:38:29.047Z,13.40
2022-11-12T21:41:23.840Z,13.40
2022-11-12T21:44:10.203Z,13.40
2022-11-12T21:46:56.659Z,13.40
2022-11-12T21:49:43.414Z,13.40
2022-11-12T21:52:32.580Z,13.40
2022-11-12T21:55:19.239Z,13.40
2022-11-12T21:58:05.247Z,13.40
2022-11-12T22:00:51.076Z,13.30
2022-11-12T22:03:38.199Z,13.30
2022-11-12T22:06:26.953Z,13.40
2022-11-12T22:09:13.688Z,13.30
2022-11-12T22:12:00.132Z,13.40
2022-11-12T22:14:46.989Z,13.40
2022-11-12T22:17:36.461Z,13.40
2022-11-12T22:20:23.838Z,13.40
2022-11-12T22:23:10.044Z,13.40
2022-11-12T22:26:00.332Z,13.50
2022-11-12T22:28:47.386Z,13.50
2022-11-12T22:31:33.893Z,13.60
2022-11-12T22:34:20.433Z,13.60
2022-11-12T22:37:07.040Z,13.70
2022-11-12T22:39:53.312Z,13.70
2022-11-12T22:42:40.998Z,13.80
2022-11-12T22:45:30.655Z,13.80
2022-11-12T22:48:17.198Z,13.80
2022-11-12T22:51:05.762Z,13.80
2022-11-12T22:53:57.214Z,13.80
2022-11-12T22:56:44.675Z,13.80
2022-11-12T22:59:31.116Z,13.90
2022-11-12T23:02:17.138Z,14.00
2022-11-12T23:05:03.589Z,14.20
2022-11-12T23:07:50.068Z,14.30
2022-11-12T23:10:40.393Z,14.40
2022-11-12T23:13:27.538Z,14.50
2022-11-12T23:16:17.091Z,14.60
2022-11-12T23:19:03.264Z,14.60
2022-11-12T23:21:49.374Z,14.80
2022-11-12T23:24:38.710Z,14.90
2022-11-12T23:27:25.024Z,15.00
2022-11-12T23:30:12.315Z,15.00
2022-11-12T23:32:58.766Z,15.10
2022-11-12T23:35:45.329Z,15.10
2022-11-12T23:38:32.406Z,15.20
2022-11-12T23:41:23.935Z,15.20
2022-11-12T23:44:10.544Z,15.30
2022-11-12T23:46:56.858Z,15.30
2022-11-12T23:49:43.170Z,15.30
2022-11-12T23:52:29.163Z,15.30
2022-11-12T23:55:16.197Z,15.30
2022-11-12T23:58:04.824Z,15.40
